createdAt,value
2022-09-01T00:01:10.737Z,2.97
2022-09-01T00:06:19.683Z,2.97
2022-09-01T00:11:26.326Z,2.97
2022-09-01T00:16:34.175Z,2.97
2022-09-01T00:21:40.771Z,2.97
2022-09-01T00:26:47.898Z,2.97
2022-09-01T00:31:55.299Z,2.98
2022-09-01T00:37:02.951Z,2.97
2022-09-01T00:42:10.746Z,2.97
2022-09-01T00:47:18.870Z,2.96
2022-09-01T00:52:27.607Z,2.97
2022-09-01T00:57:35.079Z,2.96
2022-09-01T01:02:43.956Z,2.97
2022-09-01T01:07:51.014Z,2.97
2022-09-01T01:12:59.606Z,2.97
2022-09-01T01:18:07.181Z,2.98
2022-09-01T01:23:14.621Z,2.97
2022-09-01T01:28:22.354Z,2.97
2022-09-01T01:33:35.276Z,2.97
2022-09-01T01:38:41.742Z,2.96
2022-09-01T01:43:49.420Z,2.97
2022-09-01T01:48:56.613Z,2.96
2022-09-01T01:54:04.365Z,2.97
2022-09-01T01:59:12.414Z,2.97
2022-09-01T02:04:20.001Z,2.98
2022-09-01T02:09:28.039Z,2.97
2022-09-01T02:14:36.080Z,2.96
2022-09-01T02:19:44.695Z,2.96
2022-09-01T02:24:52.152Z,2.96
2022-09-01T02:29:59.712Z,2.97
2022-09-01T02:35:08.086Z,2.98
2022-09-01T02:40:16.286Z,2.97
2022-09-01T02:45:22.782Z,2.97
2022-09-01T02:50:30.617Z,2.96
2022-09-01T02:55:38.904Z,2.96
2022-09-01T03:00:47.023Z,2.97
2022-09-01T03:05:54.893Z,2.97
2022-09-01T03:11:02.283Z,2.97
2022-09-01T03:16:16.514Z,2.96
2022-09-01T03:21:24.284Z,2.96
2022-09-01T03:26:31.869Z,2.97
2022-09-01T03:31:39.733Z,2.97
2022-09-01T03:36:47.369Z,2.97
2022-09-01T03:41:54.807Z,2.96
2022-09-01T03:47:02.728Z,2.96
2022-09-01T03:52:10.039Z,2.96
2022-09-01T03:57:18.935Z,2.97
2022-09-01T04:02:26.171Z,2.96
2022-09-01T04:07:33.976Z,2.97
2022-09-01T04:12:42.258Z,2.97
2022-09-01T04:17:50.530Z,2.96
2022-09-01T04:22:58.226Z,2.96
2022-09-01T04:28:05.532Z,2.96
2022-09-01T04:33:14.917Z,2.97
2022-09-01T04:38:22.297Z,2.96
2022-09-01T04:43:30.293Z,2.95
2022-09-01T04:48:38.924Z,2.96
2022-09-01T04:53:47.409Z,2.97
2022-09-01T04:58:55.581Z,2.97
2022-09-01T05:04:03.105Z,2.97
2022-09-01T05:09:10.645Z,2.96
2022-09-01T05:14:19.073Z,2.97
2022-09-01T05:19:27.276Z,2.96
2022-09-01T05:24:34.165Z,2.97
2022-09-01T05:29:43.039Z,2.97
2022-09-01T05:34:50.504Z,2.97
2022-09-01T05:39:58.705Z,2.97
2022-09-01T05:45:07.364Z,2.97
2022-09-01T05:50:14.172Z,2.97
2022-09-01T05:55:21.801Z,2.96
2022-09-01T06:00:29.798Z,2.97
2022-09-01T06:05:37.810Z,2.98
2022-09-01T06:10:46.749Z,2.99
2022-09-01T06:15:53.785Z,2.98
2022-09-01T06:21:02.278Z,3.0
2022-09-01T06:26:08.944Z,3.01
2022-09-01T06:31:16.637Z,3.01
2022-09-01T06:36:24.922Z,3.01
2022-09-01T06:41:32.532Z,3.01
2022-09-01T06:46:40.250Z,3.01
2022-09-01T06:51:47.448Z,3.01
2022-09-01T06:56:54.330Z,3.01
2022-09-01T07:02:01.808Z,3.02
2022-09-01T07:07:09.105Z,3.02
2022-09-01T07:12:16.248Z,3.01
2022-09-01T07:17:25.347Z,3.01
2022-09-01T07:22:32.976Z,3.02
2022-09-01T07:27:40.503Z,3.01
2022-09-01T07:32:48.079Z,3.02
2022-09-01T07:37:56.530Z,3.0
2022-09-01T07:43:03.261Z,3.01
2022-09-01T07:48:10.517Z,3.01
2022-09-01T07:53:17.655Z,3.01
2022-09-01T07:58:25.372Z,3.0
2022-09-01T08:03:32.735Z,3.01
2022-09-01T08:08:40.572Z,3.01
2022-09-01T08:13:49.342Z,3.01
2022-09-01T08:18:57.998Z,3.01
2022-09-01T08:24:05.973Z,3.02
2022-09-01T08:29:13.179Z,3.02
2022-09-01T08:34:22.168Z,3.01
2022-09-01T08:39:28.882Z,3.01
2022-09-01T08:44:36.287Z,3.02
2022-09-01T08:49:44.500Z,3.02
2022-09-01T08:54:52.189Z,3.02
2022-09-01T08:59:59.582Z,3.02
2022-09-01T09:05:06.781Z,3.01
2022-09-01T09:10:14.639Z,3.0
2022-09-01T09:15:23.136Z,3.01
2022-09-01T09:20:31.506Z,3.0
2022-09-01T09:25:39.291Z,3.01
2022-09-01T09:30:46.586Z,3.01
2022-09-01T09:35:54.437Z,3.0
2022-09-01T09:41:02.361Z,2.99
2022-09-01T09:46:10.642Z,2.99
2022-09-01T09:51:18.316Z,3.0
2022-09-01T09:56:24.580Z,2.99
2022-09-01T10:01:32.667Z,3.0
2022-09-01T10:06:41.223Z,3.0
2022-09-01T10:11:50.008Z,3.01
2022-09-01T10:16:58.117Z,3.01
2022-09-01T10:22:05.689Z,3.02
2022-09-01T10:27:13.468Z,3.01
2022-09-01T10:32:21.505Z,3.02
2022-09-01T10:37:28.968Z,3.0
2022-09-01T10:42:36.393Z,3.0
2022-09-01T10:47:44.761Z,3.01
2022-09-01T10:52:52.097Z,3.0
2022-09-01T10:58:00.300Z,3.0
2022-09-01T11:03:06.501Z,3.01
2022-09-01T11:08:14.921Z,3.01
2022-09-01T11:13:22.362Z,3.0
2022-09-01T11:18:30.622Z,3.01
2022-09-01T11:23:36.581Z,3.0
2022-09-01T11:28:43.832Z,3.01
2022-09-01T11:33:50.950Z,3.0
2022-09-01T11:38:58.642Z,3.0
2022-09-01T11:44:08.053Z,3.01
2022-09-01T11:49:16.519Z,3.01
2022-09-01T11:54:24.553Z,3.01
2022-09-01T11:59:31.418Z,3.01
2022-09-01T12:04:39.261Z,3.01
2022-09-01T12:09:46.825Z,3.01
2022-09-01T12:14:53.619Z,3.0
2022-09-01T12:20:01.150Z,3.0
2022-09-01T12:25:08.671Z,3.01
2022-09-01T12:30:15.891Z,3.0
2022-09-01T12:35:23.371Z,3.0
2022-09-01T12:40:31.317Z,3.0
2022-09-01T12:45:39.122Z,3.0
2022-09-01T12:50:46.022Z,3.0
2022-09-01T12:55:53.852Z,3.01
2022-09-01T13:01:01.108Z,3.0
2022-09-01T13:06:09.422Z,2.99
2022-09-01T13:11:17.265Z,3.0
2022-09-01T13:16:24.584Z,3.0
2022-09-01T13:21:32.344Z,3.01
2022-09-01T13:26:40.123Z,3.0
2022-09-01T13:31:48.271Z,3.01
2022-09-01T13:36:57.191Z,3.0
2022-09-01T13:42:05.557Z,3.01
2022-09-01T13:47:13.243Z,3.0
2022-09-01T13:52:20.827Z,3.0
2022-09-01T13:57:27.892Z,3.01
2022-09-01T14:02:35.905Z,3.01
2022-09-01T14:07:43.433Z,3.0
2022-09-01T14:12:51.995Z,3.01
2022-09-01T14:17:59.916Z,3.01
2022-09-01T14:23:07.799Z,3.0
2022-09-01T14:28:15.864Z,3.0
2022-09-01T14:33:22.411Z,3.0
2022-09-01T14:38:30.126Z,3.0
2022-09-01T14:43:36.568Z,3.0
2022-09-01T14:48:43.781Z,3.0
2022-09-01T14:53:50.519Z,3.0
2022-09-01T14:58:59.495Z,3.0
2022-09-01T15:04:06.379Z,3.0
2022-09-01T15:09:12.616Z,3.0
2022-09-01T15:14:20.694Z,3.0
2022-09-01T15:19:26.942Z,3.0
2022-09-01T15:24:34.285Z,2.98
2022-09-01T15:29:41.991Z,3.0
2022-09-01T15:34:52.243Z,2.99
2022-09-01T15:40:00.140Z,2.99
2022-09-01T15:45:08.455Z,3.0
2022-09-01T15:50:16.196Z,2.99
2022-09-01T15:55:23.146Z,3.0
2022-09-01T16:00:30.530Z,2.99
2022-09-01T16:05:38.160Z,2.99
2022-09-01T16:10:46.125Z,2.99
2022-09-01T16:15:54.160Z,3.0
2022-09-01T16:21:01.061Z,2.99
2022-09-01T16:26:08.899Z,3.0
2022-09-01T16:31:16.113Z,3.0
2022-09-01T16:36:23.300Z,3.0
2022-09-01T16:41:30.562Z,3.0
2022-09-01T16:46:37.693Z,3.0
2022-09-01T16:51:44.907Z,3.0
2022-09-01T16:56:52.869Z,3.0
2022-09-01T17:02:07.488Z,2.98
2022-09-01T17:07:15.077Z,2.99
2022-09-01T17:15:27.448Z,2.98
2022-09-01T17:20:33.368Z,2.99
2022-09-01T17:25:40.985Z,2.98
2022-09-01T17:30:48.290Z,2.98
2022-09-01T17:35:55.428Z,2.99
2022-09-01T17:41:02.982Z,2.98
2022-09-01T17:46:10.193Z,2.98
2022-09-01T17:51:17.373Z,2.99
2022-09-01T17:56:28.457Z,2.97
2022-09-01T18:01:35.469Z,2.98
2022-09-01T18:06:42.825Z,2.99
2022-09-01T18:11:50.651Z,2.98
2022-09-01T18:16:57.852Z,2.98
2022-09-01T18:22:06.195Z,2.98
2022-09-01T18:27:14.239Z,2.98
2022-09-01T18:32:21.382Z,2.98
2022-09-01T18:37:29.494Z,3.0
2022-09-01T18:42:37.110Z,2.97
2022-09-01T18:47:45.005Z,2.98
2022-09-01T18:52:52.740Z,2.98
2022-09-01T18:58:00.874Z,2.97
2022-09-01T19:03:08.999Z,2.97
2022-09-01T19:08:17.425Z,2.97
2022-09-01T19:13:24.097Z,2.98
2022-09-01T19:18:31.434Z,2.98
2022-09-01T19:23:38.483Z,2.98
2022-09-01T19:28:45.693Z,2.97
2022-09-01T19:33:54.072Z,2.97
2022-09-01T19:39:00.942Z,2.98
2022-09-01T19:44:09.372Z,2.97
2022-09-01T19:49:18.900Z,2.97
2022-09-01T19:54:26.119Z,2.98
2022-09-01T19:59:33.390Z,2.98
2022-09-01T20:04:41.144Z,2.98
2022-09-01T20:09:49.339Z,2.98
2022-09-01T20:14:57.123Z,2.98
2022-09-01T20:20:04.903Z,2.98
2022-09-01T20:25:12.922Z,2.98
2022-09-01T20:30:20.417Z,2.98
2022-09-01T20:35:28.405Z,2.98
2022-09-01T20:40:35.453Z,2.98
2022-09-01T20:45:42.649Z,2.97
2022-09-01T20:50:50.504Z,2.98
2022-09-01T20:55:58.455Z,2.98
2022-09-01T21:01:05.905Z,2.98
2022-09-01T21:06:13.437Z,2.98
2022-09-01T21:11:21.271Z,2.97
2022-09-01T21:16:28.656Z,2.97
2022-09-01T21:21:37.110Z,2.97
2022-09-01T21:26:44.679Z,2.97
2022-09-01T21:31:51.294Z,2.97
2022-09-01T21:36:59.708Z,2.98
2022-09-01T21:42:07.240Z,2.98
2022-09-01T21:47:16.146Z,2.97
2022-09-01T21:52:24.083Z,2.98
2022-09-01T21:57:31.906Z,2.97
2022-09-01T22:02:40.498Z,2.97
2022-09-01T22:07:49.253Z,2.98
2022-09-01T22:12:57.271Z,2.97
2022-09-01T22:18:15.350Z,2.97
2022-09-01T22:23:24.309Z,2.97
2022-09-01T22:28:32.670Z,2.97
2022-09-01T22:33:41.067Z,2.97
2022-09-01T22:38:49.491Z,2.97
2022-09-01T22:43:57.110Z,2.97
2022-09-01T22:49:04.740Z,2.97
2022-09-01T22:54:12.736Z,2.96
2022-09-01T22:59:20.565Z,2.97
2022-09-01T23:04:28.880Z,2.97
2022-09-01T23:09:37.190Z,2.96
2022-09-01T23:14:44.139Z,2.97
2022-09-01T23:19:51.668Z,2.97
2022-09-01T23:24:59.589Z,2.97
2022-09-01T23:30:07.410Z,2.97
2022-09-01T23:35:15.459Z,2.97
2022-09-01T23:40:22.662Z,2.96
2022-09-01T23:45:31.555Z,2.97
2022-09-01T23:50:39.862Z,2.96
2022-09-01T23:55:47.208Z,2.97
